RJKA

Amami

Airport
ICAO code
RJKA
IATA Code
ASJ
Summary
ICAO Region
APAC
ICAO Territory
Location

Amami, Kagoshima Prefecture

Serving
Amami
Elevation
88 ft
Coordinates
28° 25' 52" N , 129° 42' 44" E
KCC
Airport WX
Tropical Revolving Storm
Metar
Observation
RJKA 061700Z AUTO 24007KT 9999 FEW017 //////TCU 19/17 Q1011
Station
Amami Airport
Date/Time
2023-02-06 17:00:00
Wind direction
240°
Wind speed
07 kts
Lowest cloud amount
few clouds
Temperature
19°C
Dew point
17°C
Humidity
88%
QNH
1011 hPa
Weather condition
n/a

Amami Airport is an airport located 21.9 km east northeast Amami, a city on Amami Ōshima (Amami Island) in the Kagoshima Prefecture of Japan. It was previously named Amami Oshima Airport.

Climatology

Humid Sub-tropical climate (Köppen climate classification Cwa) - Hot humid summers and cooler winter. Significant precipitation in all seasons but drier in the winter.

Occasional Typhoons coming from South China Sea.

Runways

Designator Length Width Surface Rops
3/21 1999 46 ASP Yes/Yes

Airport map

Aerial View

SKYbrary Partners:

Safety knowledge contributed by: